createdAt,value
2022-10-16T00:02:21.454Z,74.31
2022-10-16T00:04:51.823Z,74.08
2022-10-16T00:07:19.876Z,74.24
2022-10-16T00:09:53.351Z,73.87
2022-10-16T00:12:25.323Z,74.14
2022-10-16T00:14:54.366Z,74.10
2022-10-16T00:17:22.209Z,73.73
2022-10-16T00:19:51.229Z,73.42
2022-10-16T00:22:18.931Z,73.77
2022-10-16T00:24:47.062Z,73.61
2022-10-16T00:27:20.815Z,73.70
2022-10-16T00:29:55.664Z,73.73
2022-10-16T00:32:24.128Z,73.91
2022-10-16T00:35:02.864Z,74.28
2022-10-16T00:37:30.939Z,74.35
2022-10-16T00:40:09.911Z,74.24
2022-10-16T00:42:38.055Z,74.45
2022-10-16T00:45:11.787Z,74.34
2022-10-16T00:47:42.835Z,74.13
2022-10-16T00:50:15.523Z,74.53
2022-10-16T00:52:51.772Z,74.24
2022-10-16T00:55:20.612Z,73.93
2022-10-16T00:57:50.008Z,74.48
2022-10-16T01:00:23.035Z,74.35
2022-10-16T01:03:03.753Z,74.01
2022-10-16T01:05:49.555Z,74.29
2022-10-16T01:08:24.080Z,74.06
2022-10-16T01:10:59.602Z,73.78
2022-10-16T01:13:33.994Z,74.23
2022-10-16T01:16:08.862Z,74.15
2022-10-16T01:18:41.451Z,73.74
2022-10-16T01:21:15.394Z,73.87
2022-10-16T01:23:58.687Z,73.98
2022-10-16T01:26:38.351Z,73.98
2022-10-16T01:29:23.104Z,74.12
2022-10-16T01:31:59.412Z,73.96
2022-10-16T01:34:37.462Z,74.11
2022-10-16T01:37:13.815Z,74.73
2022-10-16T01:39:47.218Z,74.69
2022-10-16T01:42:19.883Z,74.35
2022-10-16T01:44:51.420Z,74.65
2022-10-16T01:47:34.714Z,74.36
2022-10-16T01:50:06.756Z,74.42
2022-10-16T01:52:45.631Z,74.71
2022-10-16T01:55:16.655Z,75.19
2022-10-16T01:57:49.899Z,75.00
2022-10-16T02:00:23.733Z,74.78
2022-10-16T02:02:57.212Z,75.02
2022-10-16T02:05:30.506Z,74.97
2022-10-16T02:08:00.511Z,74.95
2022-10-16T02:10:32.611Z,75.30
2022-10-16T02:13:05.810Z,75.20
2022-10-16T02:15:37.535Z,75.20
2022-10-16T02:18:09.517Z,75.35
2022-10-16T02:20:50.029Z,75.30
2022-10-16T02:23:29.111Z,75.34
2022-10-16T02:26:00.897Z,75.25
2022-10-16T02:28:39.209Z,75.56
2022-10-16T02:31:12.267Z,75.74
2022-10-16T02:33:42.743Z,75.49
2022-10-16T02:36:11.687Z,75.18
2022-10-16T02:38:41.668Z,75.32
2022-10-16T02:41:09.910Z,75.79
2022-10-16T02:43:37.775Z,75.68
2022-10-16T02:46:07.221Z,75.72
2022-10-16T02:48:41.061Z,75.67
2022-10-16T02:51:16.326Z,75.81
2022-10-16T02:53:51.567Z,75.88
2022-10-16T02:58:55.702Z,76.28
2022-10-16T03:01:28.027Z,76.24
2022-10-16T03:04:00.236Z,76.37
2022-10-16T03:06:37.305Z,76.42
2022-10-16T03:09:05.110Z,76.33
2022-10-16T03:11:32.889Z,76.66
2022-10-16T03:14:03.013Z,76.64
2022-10-16T03:16:30.955Z,76.71
2022-10-16T03:19:02.854Z,76.64
2022-10-16T03:21:31.028Z,77.13
2022-10-16T03:24:00.803Z,76.98
2022-10-16T03:26:28.568Z,76.90
2022-10-16T03:28:56.491Z,76.70
2022-10-16T03:31:24.494Z,77.01
2022-10-16T03:33:54.821Z,77.18
2022-10-16T03:36:28.488Z,77.24
2022-10-16T03:39:02.404Z,77.00
2022-10-16T03:41:30.287Z,76.89
2022-10-16T03:43:58.409Z,77.10
2022-10-16T03:46:28.571Z,77.20
2022-10-16T03:48:58.089Z,77.42
2022-10-16T03:51:33.002Z,77.40
2022-10-16T03:54:00.858Z,77.65
2022-10-16T03:56:31.949Z,77.79
2022-10-16T03:59:21.155Z,77.47
2022-10-16T04:01:48.953Z,77.55
2022-10-16T04:04:19.467Z,77.66
2022-10-16T04:06:58.939Z,77.31
2022-10-16T04:09:28.942Z,77.47
2022-10-16T04:12:08.065Z,77.45
2022-10-16T04:14:36.994Z,77.74
2022-10-16T04:17:07.165Z,77.45
2022-10-16T04:19:37.237Z,77.63
2022-10-16T04:22:23.702Z,77.70
2022-10-16T04:24:55.086Z,77.88
2022-10-16T04:27:22.998Z,78.08
2022-10-16T04:29:50.901Z,77.97
2022-10-16T04:32:32.698Z,78.10
2022-10-16T04:35:00.826Z,78.00
2022-10-16T04:37:29.931Z,78.00
2022-10-16T04:40:04.280Z,77.72
2022-10-16T04:42:32.031Z,77.51
2022-10-16T04:44:59.925Z,77.46
2022-10-16T04:47:28.117Z,77.41
2022-10-16T04:50:03.274Z,77.48
2022-10-16T04:55:10.901Z,77.25
2022-10-16T04:57:38.737Z,77.28
2022-10-16T05:00:07.686Z,77.05
2022-10-16T05:02:38.847Z,77.06
2022-10-16T05:05:08.693Z,76.91
2022-10-16T05:07:50.572Z,76.82
2022-10-16T05:10:21.558Z,77.05
2022-10-16T05:12:58.509Z,77.02
2022-10-16T05:15:28.077Z,77.08
2022-10-16T05:18:00.837Z,77.10
2022-10-16T05:20:29.522Z,77.27
2022-10-16T05:22:58.858Z,77.30
2022-10-16T05:25:28.854Z,77.36
2022-10-16T05:28:04.224Z,77.34
2022-10-16T05:30:46.054Z,77.24
2022-10-16T05:33:25.934Z,77.64
2022-10-16T05:35:55.078Z,77.34
2022-10-16T05:38:38.233Z,77.34
2022-10-16T05:41:08.093Z,77.35
2022-10-16T05:43:38.317Z,77.49
2022-10-16T05:46:07.611Z,77.43
2022-10-16T05:48:41.780Z,77.33
2022-10-16T05:51:13.612Z,77.19
2022-10-16T05:56:15.769Z,77.94
2022-10-16T05:58:45.838Z,78.10
2022-10-16T06:01:19.046Z,78.01
2022-10-16T06:03:47.063Z,78.36
2022-10-16T06:06:21.200Z,78.09
2022-10-16T06:08:51.299Z,77.93
2022-10-16T06:11:20.994Z,78.06
2022-10-16T06:13:51.661Z,77.76
2022-10-16T06:16:19.900Z,77.79
2022-10-16T06:18:51.252Z,77.61
2022-10-16T06:21:21.499Z,77.25
2022-10-16T06:23:50.795Z,77.16
2022-10-16T06:29:34.017Z,77.10
2022-10-16T06:32:01.889Z,76.58
2022-10-16T06:34:30.042Z,76.55
2022-10-16T06:37:09.830Z,76.46
2022-10-16T06:39:42.493Z,75.99
2022-10-16T06:42:15.268Z,76.01
2022-10-16T06:44:45.458Z,76.10
2022-10-16T06:47:15.980Z,75.81
2022-10-16T06:49:43.924Z,76.08
2022-10-16T06:52:11.676Z,76.15
2022-10-16T06:54:42.599Z,76.09
2022-10-16T06:57:18.382Z,75.61
2022-10-16T06:59:54.567Z,75.06
2022-10-16T07:02:25.681Z,75.28
2022-10-16T07:04:53.746Z,75.05
2022-10-16T07:10:10.158Z,75.33
2022-10-16T07:12:46.093Z,74.95
2022-10-16T07:15:13.969Z,74.67
2022-10-16T07:17:41.829Z,75.01
2022-10-16T07:20:12.190Z,74.68
2022-10-16T07:22:56.182Z,74.89
2022-10-16T07:25:23.983Z,75.34
2022-10-16T07:27:57.040Z,75.40
2022-10-16T07:30:39.299Z,75.21
2022-10-16T07:33:14.311Z,75.78
2022-10-16T07:35:52.639Z,75.70
2022-10-16T07:38:21.750Z,75.77
2022-10-16T07:40:49.798Z,75.59
2022-10-16T07:43:21.787Z,74.78
2022-10-16T07:48:24.610Z,73.94
2022-10-16T07:51:01.952Z,73.74
2022-10-16T07:53:31.131Z,73.31
2022-10-16T07:56:03.090Z,73.27
2022-10-16T07:58:32.601Z,72.63
2022-10-16T08:01:14.295Z,72.90
2022-10-16T08:03:44.170Z,72.77
2022-10-16T08:06:12.067Z,72.54
2022-10-16T08:08:40.310Z,72.88
2022-10-16T08:11:27.122Z,72.27
2022-10-16T08:13:59.029Z,72.46
2022-10-16T08:16:30.658Z,72.31
2022-10-16T08:18:58.479Z,72.06
2022-10-16T08:21:40.482Z,72.28
2022-10-16T08:24:09.645Z,72.05
2022-10-16T08:26:44.714Z,72.63
2022-10-16T08:29:15.882Z,73.07
2022-10-16T08:34:39.297Z,73.21
2022-10-16T08:37:22.568Z,73.19
2022-10-16T08:39:57.590Z,73.05
2022-10-16T08:42:46.455Z,73.28
2022-10-16T08:45:47.697Z,72.80
2022-10-16T08:48:24.983Z,72.71
2022-10-16T08:50:54.151Z,72.77
2022-10-16T08:53:54.770Z,72.36
2022-10-16T08:56:23.911Z,71.96
2022-10-16T08:58:56.523Z,71.83
2022-10-16T09:01:41.188Z,71.92
2022-10-16T09:04:49.342Z,71.69
2022-10-16T09:07:28.785Z,71.58
2022-10-16T09:10:16.179Z,71.31
2022-10-16T09:12:54.882Z,71.22
2022-10-16T09:15:37.571Z,71.45
2022-10-16T09:18:28.657Z,71.39
2022-10-16T09:21:10.490Z,71.17
2022-10-16T09:23:42.321Z,70.98
2022-10-16T09:26:29.660Z,71.01
2022-10-16T09:29:00.367Z,70.90
2022-10-16T09:31:28.332Z,70.89
2022-10-16T09:34:09.194Z,70.71
2022-10-16T09:36:46.950Z,70.58
2022-10-16T09:39:14.976Z,70.52
2022-10-16T09:41:46.102Z,70.30
2022-10-16T09:44:24.489Z,70.24
2022-10-16T09:47:05.794Z,70.19
2022-10-16T09:49:35.159Z,69.90
2022-10-16T09:52:15.093Z,69.99
2022-10-16T09:54:52.460Z,69.71
2022-10-16T09:57:20.984Z,69.75
2022-10-16T09:59:50.350Z,69.44
2022-10-16T10:02:39.225Z,69.18
2022-10-16T10:05:27.590Z,69.48
2022-10-16T10:08:23.503Z,68.75
2022-10-16T10:10:51.446Z,68.64
2022-10-16T10:13:21.987Z,68.48
2022-10-16T10:16:02.080Z,68.11
2022-10-16T10:18:33.263Z,68.37
2022-10-16T10:21:06.879Z,68.68
2022-10-16T10:23:59.058Z,68.21
2022-10-16T10:26:41.696Z,68.05
2022-10-16T10:29:25.083Z,68.74
2022-10-16T10:32:14.359Z,68.00
2022-10-16T10:35:10.863Z,68.28
2022-10-16T10:38:04.195Z,67.80
2022-10-16T10:40:46.344Z,67.21
2022-10-16T10:43:45.381Z,65.15
2022-10-16T10:46:24.061Z,67.39
2022-10-16T10:49:10.877Z,66.46
2022-10-16T10:52:02.844Z,68.69
2022-10-16T10:54:48.900Z,69.45
2022-10-16T10:57:35.000Z,69.08
2022-10-16T11:00:21.411Z,68.55
2022-10-16T11:05:57.219Z,67.65
2022-10-16T11:08:30.591Z,67.61
2022-10-16T11:11:07.988Z,67.60
2022-10-16T11:13:57.452Z,67.64
2022-10-16T11:16:40.969Z,68.21
2022-10-16T11:19:24.330Z,67.67
2022-10-16T11:22:04.930Z,67.35
2022-10-16T11:24:44.711Z,67.36
2022-10-16T11:27:18.843Z,67.84
2022-10-16T11:29:53.875Z,63.04
2022-10-16T11:32:34.933Z,66.99
2022-10-16T11:35:10.052Z,67.90
2022-10-16T11:37:43.178Z,68.15
2022-10-16T11:40:23.535Z,68.49
2022-10-16T11:42:56.986Z,68.64
2022-10-16T11:45:40.679Z,68.40
2022-10-16T11:48:21.064Z,68.12
2022-10-16T11:50:55.266Z,68.01
2022-10-16T11:53:40.733Z,67.21
2022-10-16T11:56:08.737Z,67.62
2022-10-16T11:58:43.578Z,67.53
2022-10-16T12:04:16.930Z,66.54
2022-10-16T12:06:52.083Z,66.87
2022-10-16T12:09:27.019Z,66.41
2022-10-16T12:11:55.737Z,66.43
2022-10-16T12:14:51.745Z,65.65
2022-10-16T12:17:46.445Z,65.33
2022-10-16T12:20:31.473Z,66.22
2022-10-16T12:23:01.866Z,67.18
2022-10-16T12:25:35.388Z,67.17
2022-10-16T12:28:06.398Z,67.15
2022-10-16T12:30:38.763Z,67.09
2022-10-16T12:33:23.220Z,66.54
2022-10-16T12:35:51.720Z,66.28
2022-10-16T12:38:24.081Z,66.19
2022-10-16T12:41:00.966Z,65.80
2022-10-16T12:43:38.957Z,64.21
2022-10-16T12:46:35.527Z,64.19
2022-10-16T12:49:36.375Z,64.11
2022-10-16T12:52:05.433Z,64.50
2022-10-16T12:54:38.146Z,64.82
2022-10-16T12:57:20.752Z,64.99
2022-10-16T12:59:57.617Z,65.43
2022-10-16T13:03:10.329Z,65.67
2022-10-16T13:06:00.546Z,66.15
2022-10-16T13:08:55.564Z,65.88
2022-10-16T13:11:42.159Z,66.16
2022-10-16T13:14:29.935Z,65.11
2022-10-16T13:17:13.611Z,64.86
2022-10-16T13:19:51.031Z,65.07
2022-10-16T13:22:34.189Z,64.73
2022-10-16T13:25:18.625Z,65.17
2022-10-16T13:27:54.623Z,64.98
2022-10-16T13:30:28.273Z,65.12
2022-10-16T13:33:04.678Z,65.56
2022-10-16T13:35:34.449Z,65.57
2022-10-16T13:38:13.659Z,65.82
2022-10-16T13:40:52.011Z,65.51
2022-10-16T13:43:21.793Z,65.35
2022-10-16T13:45:58.418Z,65.37
2022-10-16T13:48:26.308Z,65.41
2022-10-16T13:51:01.992Z,65.22
2022-10-16T13:53:32.942Z,64.96
2022-10-16T13:56:05.191Z,65.52
2022-10-16T13:58:33.160Z,65.26
2022-10-16T14:01:03.214Z,65.37
2022-10-16T14:03:32.575Z,65.64
2022-10-16T14:06:02.527Z,66.00
2022-10-16T14:08:46.978Z,65.61
2022-10-16T14:11:47.518Z,65.38
2022-10-16T14:14:25.360Z,65.75
2022-10-16T14:16:56.059Z,65.81
2022-10-16T14:19:30.191Z,65.52
2022-10-16T14:21:59.356Z,65.44
2022-10-16T14:24:48.625Z,65.09
2022-10-16T14:27:39.221Z,64.54
2022-10-16T14:30:24.792Z,65.58
2022-10-16T14:33:01.064Z,65.67
2022-10-16T14:35:40.473Z,65.90
2022-10-16T14:38:20.716Z,66.24
2022-10-16T14:41:01.445Z,66.04
2022-10-16T14:43:35.879Z,65.85
2022-10-16T14:46:05.975Z,65.95
2022-10-16T14:48:37.625Z,66.05
2022-10-16T14:51:07.264Z,65.74
2022-10-16T14:53:35.514Z,66.00
2022-10-16T14:56:10.779Z,66.00
2022-10-16T14:58:42.514Z,65.91
2022-10-16T15:01:12.472Z,65.86
2022-10-16T15:03:40.841Z,66.33
2022-10-16T15:06:14.926Z,65.87
2022-10-16T15:08:45.321Z,65.92
2022-10-16T15:11:35.521Z,65.76
2022-10-16T15:14:04.483Z,65.86
2022-10-16T15:16:37.723Z,66.03
2022-10-16T15:19:06.607Z,66.25
2022-10-16T15:21:37.530Z,66.18
2022-10-16T15:24:10.949Z,66.49
2022-10-16T15:26:40.896Z,66.38
2022-10-16T15:29:08.978Z,66.60
2022-10-16T15:31:45.674Z,66.70
2022-10-16T15:34:14.170Z,66.94
2022-10-16T15:36:42.511Z,67.07
2022-10-16T15:39:15.496Z,67.24
2022-10-16T15:41:46.257Z,67.42
2022-10-16T15:44:14.719Z,67.88
2022-10-16T15:47:15.473Z,67.78
2022-10-16T15:49:43.367Z,68.34
2022-10-16T15:52:11.315Z,68.63
2022-10-16T15:54:40.582Z,68.75
2022-10-16T15:57:09.710Z,68.62
2022-10-16T15:59:37.483Z,69.05
2022-10-16T16:02:05.343Z,69.22
2022-10-16T16:04:43.371Z,69.55
2022-10-16T16:07:12.154Z,69.81
2022-10-16T16:09:40.208Z,69.87
2022-10-16T16:12:09.442Z,69.90
2022-10-16T16:14:43.674Z,70.04
2022-10-16T16:17:11.521Z,70.26
2022-10-16T16:19:39.383Z,70.38
2022-10-16T16:22:09.537Z,70.14
2022-10-16T16:27:39.422Z,70.24
2022-10-16T16:30:18.291Z,70.15
2022-10-16T16:33:03.444Z,70.69
2022-10-16T16:35:50.004Z,70.59
2022-10-16T16:38:19.585Z,70.98
2022-10-16T16:40:56.207Z,70.90
2022-10-16T16:43:27.956Z,71.18
2022-10-16T16:46:10.756Z,71.33
2022-10-16T16:48:39.232Z,71.51
2022-10-16T16:51:16.063Z,71.55
2022-10-16T16:54:13.698Z,71.93
2022-10-16T16:56:56.710Z,72.02
2022-10-16T16:59:28.630Z,71.57
2022-10-16T17:02:03.986Z,71.73
2022-10-16T17:07:28.770Z,71.32
2022-10-16T17:09:57.789Z,70.74
2022-10-16T17:12:32.473Z,70.71
2022-10-16T17:15:14.104Z,70.63
2022-10-16T17:20:52.803Z,70.74
2022-10-16T17:23:22.055Z,70.62
2022-10-16T17:26:03.800Z,70.66
2022-10-16T17:28:44.866Z,70.75
2022-10-16T17:31:17.142Z,70.44
2022-10-16T17:33:48.674Z,70.60
2022-10-16T17:36:16.860Z,70.50
2022-10-16T17:38:48.285Z,70.23
2022-10-16T17:41:18.113Z,70.42
2022-10-16T17:43:49.765Z,70.10
2022-10-16T17:46:21.014Z,70.80
2022-10-16T17:48:50.852Z,70.86
2022-10-16T17:51:23.096Z,70.60
2022-10-16T17:53:56.408Z,70.63
2022-10-16T17:56:25.220Z,70.75
2022-10-16T17:58:59.616Z,70.07
2022-10-16T18:01:31.258Z,70.11
2022-10-16T18:04:09.137Z,70.53
2022-10-16T18:06:37.834Z,70.46
2022-10-16T18:09:06.313Z,70.52
2022-10-16T18:11:35.005Z,70.69
2022-10-16T18:16:46.474Z,71.01
2022-10-16T18:19:14.791Z,70.74
2022-10-16T18:21:45.415Z,70.86
2022-10-16T18:24:13.715Z,70.81
2022-10-16T18:26:41.456Z,70.96
2022-10-16T18:29:18.142Z,70.77
2022-10-16T18:31:48.953Z,70.94
2022-10-16T18:34:27.205Z,71.09
2022-10-16T18:36:57.890Z,71.14
2022-10-16T18:39:25.724Z,70.80
2022-10-16T18:42:00.074Z,71.14
2022-10-16T18:44:29.021Z,71.18
2022-10-16T18:46:59.146Z,71.03
2022-10-16T18:49:30.564Z,71.09
2022-10-16T18:51:58.702Z,71.19
2022-10-16T18:54:26.668Z,71.35
2022-10-16T18:56:55.054Z,71.36
2022-10-16T18:59:23.111Z,71.67
2022-10-16T19:01:52.542Z,71.32
2022-10-16T19:04:23.763Z,71.64
2022-10-16T19:06:53.967Z,71.47
2022-10-16T19:09:23.917Z,71.66
2022-10-16T19:14:36.324Z,72.06
2022-10-16T19:17:04.219Z,71.77
2022-10-16T19:19:39.612Z,71.85
2022-10-16T19:22:28.197Z,71.85
2022-10-16T19:25:04.064Z,71.46
2022-10-16T19:27:32.684Z,71.76
2022-10-16T19:30:00.470Z,71.43
2022-10-16T19:32:28.650Z,71.68
2022-10-16T19:34:58.019Z,71.59
2022-10-16T19:37:39.785Z,71.65
2022-10-16T19:40:08.966Z,71.47
2022-10-16T19:42:38.454Z,71.90
2022-10-16T19:45:07.099Z,71.46
2022-10-16T19:47:37.171Z,71.84
2022-10-16T19:50:09.990Z,71.83
2022-10-16T19:52:38.430Z,71.76
2022-10-16T19:55:12.193Z,71.48
2022-10-16T19:57:40.855Z,71.61
2022-10-16T20:00:10.250Z,71.54
2022-10-16T20:02:40.745Z,71.91
2022-10-16T20:05:12.951Z,71.96
2022-10-16T20:10:27.470Z,71.80
2022-10-16T20:12:55.376Z,71.79
2022-10-16T20:15:23.394Z,71.85
2022-10-16T20:17:51.202Z,71.76
2022-10-16T20:20:23.154Z,71.62
2022-10-16T20:23:04.809Z,71.72
2022-10-16T20:25:36.423Z,71.80
2022-10-16T20:28:08.509Z,71.72
2022-10-16T20:30:37.261Z,71.72
2022-10-16T20:33:08.278Z,71.62
2022-10-16T20:35:42.488Z,71.67
2022-10-16T20:38:10.429Z,71.79
2022-10-16T20:40:43.525Z,71.57
2022-10-16T20:43:14.008Z,71.70
2022-10-16T20:45:42.756Z,71.81
2022-10-16T20:48:12.182Z,71.49
2022-10-16T20:50:42.975Z,71.41
2022-10-16T20:53:11.001Z,71.49
2022-10-16T20:55:39.064Z,71.64
2022-10-16T20:58:07.051Z,71.86
2022-10-16T21:00:37.733Z,71.46
2022-10-16T21:03:05.914Z,71.56
2022-10-16T21:05:34.604Z,71.77
2022-10-16T21:08:04.235Z,71.59
2022-10-16T21:10:32.758Z,71.28
2022-10-16T21:13:00.677Z,71.63
2022-10-16T21:15:28.754Z,71.43
2022-10-16T21:17:56.555Z,71.48
2022-10-16T21:20:24.786Z,71.48
2022-10-16T21:22:52.708Z,71.40
2022-10-16T21:25:29.899Z,71.28
2022-10-16T21:27:57.740Z,71.58
2022-10-16T21:30:25.606Z,71.63
2022-10-16T21:32:53.547Z,71.37
2022-10-16T21:35:21.563Z,71.68
2022-10-16T21:37:49.957Z,71.54
2022-10-16T21:40:27.763Z,71.18
2022-10-16T21:42:57.097Z,71.19
2022-10-16T21:45:24.914Z,70.86
2022-10-16T21:47:52.779Z,70.99
2022-10-16T21:50:20.912Z,71.43
2022-10-16T21:52:57.882Z,71.42
2022-10-16T21:55:37.348Z,71.65
2022-10-16T21:58:06.616Z,71.53
2022-10-16T22:00:34.384Z,71.79
2022-10-16T22:03:02.259Z,72.06
2022-10-16T22:05:30.128Z,72.03
2022-10-16T22:07:57.968Z,72.39
2022-10-16T22:10:29.902Z,72.44
2022-10-16T22:12:57.647Z,72.52
2022-10-16T22:15:26.803Z,73.04
2022-10-16T22:17:54.522Z,73.58
2022-10-16T22:20:22.397Z,73.37
2022-10-16T22:22:50.186Z,73.31
2022-10-16T22:25:18.766Z,73.77
2022-10-16T22:27:46.642Z,73.84
2022-10-16T22:30:14.545Z,74.24
2022-10-16T22:32:44.836Z,74.11
2022-10-16T22:35:12.700Z,74.54
2022-10-16T22:37:40.620Z,74.33
2022-10-16T22:40:10.120Z,74.48
2022-10-16T22:42:37.872Z,74.72
2022-10-16T22:45:09.284Z,74.21
2022-10-16T22:47:37.262Z,74.52
2022-10-16T22:50:07.622Z,74.59
2022-10-16T22:52:36.594Z,74.86
2022-10-16T22:55:14.899Z,74.87
2022-10-16T22:57:43.311Z,75.20
2022-10-16T23:00:13.954Z,74.64
2022-10-16T23:02:41.802Z,74.91
2022-10-16T23:05:13.821Z,74.81
2022-10-16T23:07:46.579Z,74.71
2022-10-16T23:10:14.310Z,74.53
2022-10-16T23:12:42.249Z,74.58
2022-10-16T23:15:16.402Z,74.68
2022-10-16T23:17:43.949Z,75.72
2022-10-16T23:20:28.484Z,74.80
2022-10-16T23:22:56.147Z,76.71
2022-10-16T23:25:26.959Z,75.65
2022-10-16T23:27:55.266Z,75.27
2022-10-16T23:30:32.180Z,75.33
2022-10-16T23:33:01.931Z,75.50
2022-10-16T23:35:31.128Z,75.49
2022-10-16T23:37:59.216Z,75.58
2022-10-16T23:40:40.900Z,75.82
2022-10-16T23:43:08.675Z,75.69
2022-10-16T23:45:38.878Z,75.90
2022-10-16T23:48:12.474Z,75.99
2022-10-16T23:50:41.674Z,75.91
2022-10-16T23:53:10.293Z,76.25
2022-10-16T23:55:38.961Z,75.93
2022-10-16T23:58:09.086Z,76.10
